createdAt,value
2018-08-19T00:01:41.000Z,31.5
2018-08-19T00:03:41.000Z,31.4
2018-08-19T00:05:41.000Z,31.4
2018-08-19T00:06:41.000Z,31.4
2018-08-19T00:08:41.000Z,31.5
2018-08-19T00:09:41.000Z,31.5
2018-08-19T00:10:41.000Z,31.5
2018-08-19T00:12:41.000Z,31.6
2018-08-19T00:14:41.000Z,31.6
2018-08-19T00:16:41.000Z,31.6
2018-08-19T00:17:41.000Z,31.5
2018-08-19T00:19:41.000Z,31.6
2018-08-19T00:21:41.000Z,31.6
2018-08-19T00:23:41.000Z,31.6
2018-08-19T00:25:41.000Z,31.5
2018-08-19T00:27:41.000Z,31.5
2018-08-19T00:29:41.000Z,31.4
2018-08-19T00:30:41.000Z,31.4
2018-08-19T00:32:41.000Z,31.4
2018-08-19T00:33:41.000Z,31.4
2018-08-19T00:35:41.000Z,31.5
2018-08-19T00:37:41.000Z,31.5
2018-08-19T00:39:41.000Z,31.5
2018-08-19T00:40:41.000Z,31.5
2018-08-19T00:41:41.000Z,31.6
2018-08-19T00:42:41.000Z,31.6
2018-08-19T00:44:41.000Z,31.7
2018-08-19T00:46:41.000Z,31.7
2018-08-19T00:48:41.000Z,31.6
2018-08-19T00:50:26.000Z,31.5
2018-08-19T00:51:41.000Z,31.5
2018-08-19T00:52:41.000Z,31.5
2018-08-19T00:54:41.000Z,31.5
2018-08-19T00:55:41.000Z,31.6
2018-08-19T00:57:41.000Z,31.6
2018-08-19T00:58:41.000Z,31.6
2018-08-19T01:00:41.000Z,31.6
2018-08-19T01:02:41.000Z,31.6
2018-08-19T01:04:41.000Z,31.6
2018-08-19T01:06:41.000Z,31.5
2018-08-19T01:07:41.000Z,31.5
2018-08-19T01:08:41.000Z,31.6
2018-08-19T01:10:41.000Z,31.7
2018-08-19T01:11:41.000Z,31.7
2018-08-19T01:13:41.000Z,31.7
2018-08-19T01:15:41.000Z,31.7
2018-08-19T01:17:41.000Z,31.6
2018-08-19T01:19:41.000Z,31.6
2018-08-19T01:20:41.000Z,31.6
2018-08-19T01:22:41.000Z,31.6
2018-08-19T01:23:41.000Z,31.6
2018-08-19T01:25:41.000Z,31.5
2018-08-19T01:26:41.000Z,31.5
2018-08-19T01:28:26.000Z,31.6
2018-08-19T01:29:41.000Z,31.5
2018-08-19T01:31:41.000Z,31.4
2018-08-19T01:32:41.000Z,31.4
2018-08-19T01:34:41.000Z,31.5
2018-08-19T01:36:41.000Z,31.5
2018-08-19T01:37:41.000Z,31.5
2018-08-19T01:38:41.000Z,31.5
2018-08-19T01:40:41.000Z,31.5
2018-08-19T01:42:41.000Z,31.5
2018-08-19T01:44:41.000Z,31.5
2018-08-19T01:46:41.000Z,31.3
2018-08-19T01:47:41.000Z,31.3
2018-08-19T01:49:41.000Z,31.4
2018-08-19T01:51:41.000Z,31.4
2018-08-19T01:52:41.000Z,31.4
2018-08-19T01:54:41.000Z,31.5
2018-08-19T01:56:41.000Z,31.5
2018-08-19T01:57:41.000Z,31.5
2018-08-19T01:59:41.000Z,31.5
2018-08-19T02:00:41.000Z,31.5
2018-08-19T02:01:41.000Z,31.5
2018-08-19T02:03:41.000Z,31.6
2018-08-19T02:04:41.000Z,31.6
2018-08-19T02:06:41.000Z,31.6
2018-08-19T02:07:41.000Z,31.7
2018-08-19T02:09:41.000Z,31.7
2018-08-19T02:11:41.000Z,31.6
2018-08-19T02:13:41.000Z,31.6
2018-08-19T02:15:41.000Z,31.5
2018-08-19T02:16:41.000Z,31.5
2018-08-19T02:18:41.000Z,31.5
2018-08-19T02:20:41.000Z,31.5
2018-08-19T02:21:41.000Z,31.5
2018-08-19T02:22:41.000Z,31.5
2018-08-19T02:23:41.000Z,31.5
2018-08-19T02:25:41.000Z,31.6
2018-08-19T02:27:26.000Z,31.6
2018-08-19T02:28:41.000Z,31.6
2018-08-19T02:29:41.000Z,31.6
2018-08-19T02:30:41.000Z,31.6
2018-08-19T02:31:41.000Z,31.7
2018-08-19T02:33:41.000Z,31.7
2018-08-19T02:34:41.000Z,31.7
2018-08-19T02:36:41.000Z,31.7
2018-08-19T02:38:41.000Z,31.6
2018-08-19T02:39:41.000Z,31.6
2018-08-19T02:41:41.000Z,31.6
2018-08-19T02:42:41.000Z,31.6
2018-08-19T02:43:41.000Z,31.6
2018-08-19T02:45:41.000Z,31.7
2018-08-19T02:46:41.000Z,31.7
2018-08-19T02:48:41.000Z,31.6
2018-08-19T02:49:41.000Z,31.6
2018-08-19T02:50:41.000Z,31.6
2018-08-19T02:51:41.000Z,31.7
2018-08-19T02:52:41.000Z,31.7
2018-08-19T02:54:41.000Z,31.7
2018-08-19T02:56:26.000Z,31.7
2018-08-19T02:57:41.000Z,31.6
2018-08-19T02:58:41.000Z,31.6
2018-08-19T03:00:41.000Z,31.6
2018-08-19T03:02:41.000Z,31.5
2018-08-19T03:03:41.000Z,31.4
2018-08-19T03:04:41.000Z,31.5
2018-08-19T03:05:41.000Z,31.5
2018-08-19T03:07:41.000Z,31.5
2018-08-19T03:08:41.000Z,31.5
2018-08-19T03:09:41.000Z,31.6
2018-08-19T03:10:41.000Z,31.6
2018-08-19T03:12:26.000Z,31.7
2018-08-19T03:13:41.000Z,31.7
2018-08-19T03:15:41.000Z,31.6
2018-08-19T03:16:41.000Z,31.6
2018-08-19T03:17:41.000Z,31.6
2018-08-19T03:19:41.000Z,31.7
2018-08-19T03:21:41.000Z,31.6
2018-08-19T03:22:41.000Z,31.6
2018-08-19T03:24:41.000Z,31.6
2018-08-19T03:25:41.000Z,31.6
2018-08-19T03:26:41.000Z,31.7
2018-08-19T03:28:41.000Z,31.7
2018-08-19T03:29:41.000Z,31.7
2018-08-19T03:30:41.000Z,31.7
2018-08-19T03:32:41.000Z,31.7
2018-08-19T03:34:41.000Z,31.5
2018-08-19T03:36:41.000Z,31.4
2018-08-19T03:37:41.000Z,31.4
2018-08-19T03:39:26.000Z,31.4
2018-08-19T03:40:41.000Z,31.4
2018-08-19T03:41:41.000Z,31.4
2018-08-19T03:42:41.000Z,31.5
2018-08-19T03:44:41.000Z,31.5
2018-08-19T03:46:41.000Z,31.5
2018-08-19T03:48:26.000Z,31.5
2018-08-19T03:49:41.000Z,31.4
2018-08-19T03:50:41.000Z,31.4
2018-08-19T03:52:26.000Z,31.5
2018-08-19T03:53:41.000Z,31.5
2018-08-19T03:55:41.000Z,31.4
2018-08-19T03:56:41.000Z,31.4
2018-08-19T03:57:41.000Z,31.4
2018-08-19T03:58:41.000Z,31.4
2018-08-19T04:00:41.000Z,31.5
2018-08-19T04:02:41.000Z,31.5
2018-08-19T04:04:41.000Z,31.4
2018-08-19T04:05:41.000Z,31.4
2018-08-19T04:06:41.000Z,31.5
2018-08-19T04:07:41.000Z,31.5
2018-08-19T04:08:41.000Z,31.5
2018-08-19T04:09:41.000Z,31.6
2018-08-19T04:11:26.000Z,31.7
2018-08-19T04:12:41.000Z,31.6
2018-08-19T04:14:26.000Z,31.6
2018-08-19T04:15:41.000Z,31.5
2018-08-19T04:17:41.000Z,31.5
2018-08-19T04:18:41.000Z,31.5
2018-08-19T04:20:41.000Z,31.5
2018-08-19T04:22:41.000Z,31.4
2018-08-19T04:24:41.000Z,31.3
2018-08-19T04:26:41.000Z,31.3
2018-08-19T04:28:41.000Z,31.3
2018-08-19T04:30:41.000Z,31.2
2018-08-19T04:31:41.000Z,31.2
2018-08-19T04:32:41.000Z,31.3
2018-08-19T04:34:41.000Z,31.3
2018-08-19T04:36:41.000Z,31.3
2018-08-19T04:38:26.000Z,31.2
2018-08-19T04:39:41.000Z,31.2
2018-08-19T04:40:41.000Z,31.2
2018-08-19T04:41:41.000Z,31.3
2018-08-19T04:43:41.000Z,31.4
2018-08-19T04:44:41.000Z,31.4
2018-08-19T04:45:41.000Z,31.4
2018-08-19T04:47:41.000Z,31.4
2018-08-19T04:48:41.000Z,31.5
2018-08-19T04:50:26.000Z,31.5
2018-08-19T04:51:41.000Z,31.5
2018-08-19T04:52:41.000Z,31.5
2018-08-19T04:53:41.000Z,31.5
2018-08-19T04:55:41.000Z,31.5
2018-08-19T04:56:41.000Z,31.5
2018-08-19T04:57:41.000Z,31.6
2018-08-19T04:59:41.000Z,31.6
2018-08-19T05:00:41.000Z,31.6
2018-08-19T05:02:41.000Z,31.7
2018-08-19T05:04:41.000Z,31.6
2018-08-19T05:05:41.000Z,31.6
2018-08-19T05:06:41.000Z,31.6
2018-08-19T05:08:41.000Z,31.6
2018-08-19T05:09:41.000Z,31.6
2018-08-19T05:11:41.000Z,31.5
2018-08-19T05:13:41.000Z,31.5
2018-08-19T05:14:41.000Z,31.5
2018-08-19T05:16:41.000Z,31.6
2018-08-19T05:17:41.000Z,31.6
2018-08-19T05:19:41.000Z,31.6
2018-08-19T05:20:41.000Z,31.7
2018-08-19T05:22:41.000Z,31.6
2018-08-19T05:24:41.000Z,31.6
2018-08-19T05:26:41.000Z,31.5
2018-08-19T05:28:41.000Z,31.5
2018-08-19T05:30:41.000Z,31.4
2018-08-19T05:32:26.000Z,31.4
2018-08-19T05:33:41.000Z,31.4
2018-08-19T05:35:41.000Z,31.5
2018-08-19T05:36:41.000Z,31.5
2018-08-19T05:38:26.000Z,31.6
2018-08-19T05:39:41.000Z,31.6
2018-08-19T05:41:41.000Z,31.6
2018-08-19T05:42:41.000Z,31.6
2018-08-19T05:43:41.000Z,31.7
2018-08-19T05:45:26.000Z,31.8
2018-08-19T05:46:41.000Z,31.8
2018-08-19T05:48:41.000Z,31.8
2018-08-19T05:49:41.000Z,31.8
2018-08-19T05:50:41.000Z,31.8
2018-08-19T05:52:26.000Z,31.8
2018-08-19T05:53:41.000Z,31.8
2018-08-19T05:55:41.000Z,31.8
2018-08-19T05:57:41.000Z,31.8
2018-08-19T05:58:41.000Z,31.8
2018-08-19T06:00:41.000Z,31.9
2018-08-19T06:01:41.000Z,31.9
2018-08-19T06:02:41.000Z,32
2018-08-19T06:03:41.000Z,32
2018-08-19T06:05:41.000Z,32.1
2018-08-19T06:06:41.000Z,32.1
2018-08-19T06:07:41.000Z,32.2
2018-08-19T06:09:41.000Z,32.2
2018-08-19T06:10:41.000Z,32.2
2018-08-19T06:11:41.000Z,32.3
2018-08-19T06:13:41.000Z,32.3
2018-08-19T06:15:41.000Z,32.3
2018-08-19T06:16:41.000Z,32.3
2018-08-19T06:18:41.000Z,32.3
2018-08-19T06:20:26.000Z,32.3
2018-08-19T06:21:41.000Z,32.2
2018-08-19T06:23:41.000Z,32.2
2018-08-19T06:24:41.000Z,32.2
2018-08-19T06:26:41.000Z,32.2
2018-08-19T06:28:41.000Z,32.2
2018-08-19T06:29:41.000Z,32.2
2018-08-19T06:30:41.000Z,32.3
2018-08-19T06:32:41.000Z,32.3
2018-08-19T06:34:41.000Z,32.3
2018-08-19T06:36:41.000Z,32.3
2018-08-19T06:38:41.000Z,32.3
2018-08-19T06:40:41.000Z,32.3
2018-08-19T06:41:41.000Z,32.4
2018-08-19T06:43:41.000Z,32.4
2018-08-19T06:44:41.000Z,32.4
2018-08-19T06:45:41.000Z,32.5
2018-08-19T06:47:41.000Z,32.6
2018-08-19T06:48:41.000Z,32.6
2018-08-19T06:50:41.000Z,32.7
2018-08-19T06:51:41.000Z,32.7
2018-08-19T06:53:41.000Z,32.7
2018-08-19T06:54:41.000Z,32.8
2018-08-19T06:55:41.000Z,32.8
2018-08-19T06:57:41.000Z,32.8
2018-08-19T06:59:41.000Z,32.8
2018-08-19T07:01:41.000Z,32.8
2018-08-19T07:02:41.000Z,32.8
2018-08-19T07:03:41.000Z,32.9
2018-08-19T07:05:41.000Z,33
2018-08-19T07:06:41.000Z,33
2018-08-19T07:08:26.000Z,33
2018-08-19T07:09:41.000Z,33
2018-08-19T07:11:41.000Z,33
2018-08-19T07:12:41.000Z,33
2018-08-19T07:14:41.000Z,33
2018-08-19T07:16:41.000Z,32.9
2018-08-19T07:17:41.000Z,32.8
2018-08-19T07:19:41.000Z,32.8
2018-08-19T07:21:41.000Z,32.7
2018-08-19T07:23:41.000Z,32.5
2018-08-19T07:24:41.000Z,32.5
2018-08-19T07:25:41.000Z,32.5
2018-08-19T07:27:41.000Z,32.5
2018-08-19T07:29:41.000Z,32.5
2018-08-19T07:31:41.000Z,32.4
2018-08-19T07:33:41.000Z,32.3
2018-08-19T07:34:41.000Z,32.3
2018-08-19T07:35:41.000Z,32.4
2018-08-19T07:37:41.000Z,32.5
2018-08-19T07:38:41.000Z,32.5
2018-08-19T07:39:41.000Z,32.5
2018-08-19T07:41:41.000Z,32.5
2018-08-19T07:42:41.000Z,32.5
2018-08-19T07:44:41.000Z,32.5
2018-08-19T07:45:41.000Z,32.4
2018-08-19T07:47:41.000Z,32.5
2018-08-19T07:48:41.000Z,32.5
2018-08-19T07:49:41.000Z,32.5
2018-08-19T07:50:41.000Z,32.6
2018-08-19T07:52:41.000Z,32.6
2018-08-19T07:54:41.000Z,32.5
2018-08-19T07:56:41.000Z,32.4
2018-08-19T07:58:41.000Z,32.3
2018-08-19T08:00:41.000Z,32.3
2018-08-19T08:01:41.000Z,32.3
2018-08-19T08:03:41.000Z,32.3
2018-08-19T08:04:41.000Z,32.4
2018-08-19T08:05:41.000Z,32.4
2018-08-19T08:07:42.000Z,32.5
2018-08-19T08:09:42.000Z,32.4
2018-08-19T08:10:42.000Z,32.4
2018-08-19T08:12:42.000Z,32.4
2018-08-19T08:13:42.000Z,32.4
2018-08-19T08:14:42.000Z,32.5
2018-08-19T08:15:42.000Z,32.5
2018-08-19T08:16:42.000Z,32.5
2018-08-19T08:18:42.000Z,32.5
2018-08-19T08:19:42.000Z,32.5
2018-08-19T08:21:42.000Z,32.5
2018-08-19T08:22:42.000Z,32.5
2018-08-19T08:24:42.000Z,32.5
2018-08-19T08:25:42.000Z,32.5
2018-08-19T08:26:42.000Z,32.5
2018-08-19T08:28:42.000Z,32.5
2018-08-19T08:30:42.000Z,32.4
2018-08-19T08:32:42.000Z,32.3
2018-08-19T08:33:42.000Z,32.3
2018-08-19T08:35:42.000Z,32.3
2018-08-19T08:36:42.000Z,32.3
2018-08-19T08:37:42.000Z,32.4
2018-08-19T08:39:42.000Z,32.3
2018-08-19T08:40:42.000Z,32.3
2018-08-19T08:42:42.000Z,32.3
2018-08-19T08:44:26.000Z,32.3
2018-08-19T08:45:42.000Z,32.2
2018-08-19T08:47:42.000Z,32.2
2018-08-19T08:48:42.000Z,32.2
2018-08-19T08:49:42.000Z,32.2
2018-08-19T08:50:42.000Z,32.3
2018-08-19T08:52:42.000Z,32.3
2018-08-19T08:54:42.000Z,32.2
2018-08-19T08:56:42.000Z,32.2
2018-08-19T08:58:26.000Z,32.2
2018-08-19T08:59:42.000Z,32.1
2018-08-19T09:00:42.000Z,32.1
2018-08-19T09:01:42.000Z,32.2
2018-08-19T09:02:42.000Z,32.2
2018-08-19T09:04:42.000Z,32.3
2018-08-19T09:06:42.000Z,32.3
2018-08-19T09:08:42.000Z,32.2
2018-08-19T09:10:25.000Z,32.2
2018-08-19T09:11:41.000Z,32.1
2018-08-19T09:12:41.000Z,32.2
2018-08-19T09:13:41.000Z,32.2
2018-08-19T09:14:41.000Z,32.2
2018-08-19T09:16:41.000Z,32.3
2018-08-19T09:17:41.000Z,32.3
2018-08-19T09:19:41.000Z,32.3
2018-08-19T09:21:41.000Z,32.3
2018-08-19T09:23:41.000Z,32.2
2018-08-19T09:24:41.000Z,32.2
2018-08-19T09:26:41.000Z,32.2
2018-08-19T09:28:41.000Z,32.2
2018-08-19T09:30:25.000Z,32.2
2018-08-19T09:31:41.000Z,32.1
2018-08-19T09:32:41.000Z,32.2
2018-08-19T09:33:41.000Z,32.2
2018-08-19T09:35:25.000Z,32.3
2018-08-19T09:36:41.000Z,32.3
2018-08-19T09:38:41.000Z,32.3
2018-08-19T09:40:41.000Z,32.3
2018-08-19T09:41:41.000Z,32.3
2018-08-19T09:43:41.000Z,32.3
2018-08-19T09:45:41.000Z,32.3
2018-08-19T09:46:41.000Z,32.3
2018-08-19T09:47:41.000Z,32.4
2018-08-19T09:49:41.000Z,32.4
2018-08-19T09:50:41.000Z,32.5
2018-08-19T09:52:41.000Z,32.4
2018-08-19T09:54:41.000Z,32.3
2018-08-19T09:56:41.000Z,32.2
2018-08-19T09:57:41.000Z,32.2
2018-08-19T09:59:25.000Z,32.3
2018-08-19T10:00:41.000Z,32.3
2018-08-19T10:01:41.000Z,32.3
2018-08-19T10:03:41.000Z,32.4
2018-08-19T10:04:41.000Z,32.4
2018-08-19T10:05:41.000Z,32.4
2018-08-19T10:07:41.000Z,32.5
2018-08-19T10:09:41.000Z,32.5
2018-08-19T10:11:41.000Z,32.4
2018-08-19T10:13:41.000Z,32.3
2018-08-19T10:15:41.000Z,32.3
2018-08-19T10:17:41.000Z,32.2
2018-08-19T10:19:41.000Z,32.2
2018-08-19T10:21:41.000Z,32.1
2018-08-19T10:22:41.000Z,32.1
2018-08-19T10:24:41.000Z,32.2
2018-08-19T10:26:41.000Z,32.2
2018-08-19T10:27:41.000Z,32.3
2018-08-19T10:29:41.000Z,32.3
2018-08-19T10:30:41.000Z,32.4
2018-08-19T10:31:41.000Z,32.4
2018-08-19T10:32:41.000Z,32.4
2018-08-19T10:34:41.000Z,32.5
2018-08-19T10:36:26.000Z,32.4
2018-08-19T10:37:41.000Z,32.4
2018-08-19T10:39:41.000Z,32.4
2018-08-19T10:41:41.000Z,32.4
2018-08-19T10:43:41.000Z,32.4
2018-08-19T10:45:41.000Z,32.4
2018-08-19T10:47:41.000Z,32.3
2018-08-19T10:48:41.000Z,32.4
2018-08-19T10:50:41.000Z,32.4
2018-08-19T10:52:41.000Z,32.4
2018-08-19T10:54:41.000Z,32.4
2018-08-19T10:55:41.000Z,32.4
2018-08-19T10:56:41.000Z,32.5
2018-08-19T10:57:41.000Z,32.5
2018-08-19T10:59:41.000Z,32.6
2018-08-19T11:01:26.000Z,32.6
2018-08-19T11:02:41.000Z,32.5
2018-08-19T11:04:41.000Z,32.5
2018-08-19T11:05:41.000Z,32.5
2018-08-19T11:07:41.000Z,32.6
2018-08-19T11:08:41.000Z,32.6
2018-08-19T11:09:41.000Z,32.7
2018-08-19T11:11:41.000Z,32.7
2018-08-19T11:12:41.000Z,32.7
2018-08-19T11:14:26.000Z,32.7
2018-08-19T11:15:41.000Z,32.7
2018-08-19T11:16:41.000Z,32.7
2018-08-19T11:17:41.000Z,32.7
2018-08-19T11:19:41.000Z,32.8
2018-08-19T11:20:41.000Z,32.8
2018-08-19T11:21:41.000Z,32.8
2018-08-19T11:23:41.000Z,32.7
2018-08-19T11:25:41.000Z,32.5
2018-08-19T11:26:41.000Z,32.5
2018-08-19T11:27:41.000Z,32.5
2018-08-19T11:29:41.000Z,32.5
2018-08-19T11:30:41.000Z,32.5
2018-08-19T11:31:41.000Z,32.6
2018-08-19T11:33:41.000Z,32.6
2018-08-19T11:34:41.000Z,32.6
2018-08-19T11:36:41.000Z,32.6
2018-08-19T11:38:41.000Z,32.5
2018-08-19T11:39:41.000Z,32.5
2018-08-19T11:41:41.000Z,32.5
2018-08-19T11:43:41.000Z,32.5
2018-08-19T11:45:26.000Z,32.5
2018-08-19T11:46:41.000Z,32.5
2018-08-19T11:47:41.000Z,32.5
2018-08-19T11:48:41.000Z,32.6
2018-08-19T11:50:41.000Z,32.6
2018-08-19T11:52:41.000Z,32.6
2018-08-19T11:54:41.000Z,32.6
2018-08-19T11:55:41.000Z,32.6
2018-08-19T11:56:41.000Z,32.6
2018-08-19T11:58:41.000Z,32.7
2018-08-19T12:00:41.000Z,32.6
2018-08-19T12:02:41.000Z,32.6
2018-08-19T12:04:41.000Z,32.6
2018-08-19T12:05:41.000Z,32.6
2018-08-19T12:07:41.000Z,32.6
2018-08-19T12:09:41.000Z,32.6
2018-08-19T12:11:26.000Z,32.6
2018-08-19T12:12:41.000Z,32.6
2018-08-19T12:14:41.000Z,32.5
2018-08-19T12:16:41.000Z,32.5
2018-08-19T12:17:41.000Z,32.5
2018-08-19T12:19:41.000Z,32.6
2018-08-19T12:20:41.000Z,32.6
2018-08-19T12:21:42.000Z,32.7
2018-08-19T12:23:42.000Z,32.6
2018-08-19T12:24:42.000Z,32.6
2018-08-19T12:26:42.000Z,32.7
2018-08-19T12:28:42.000Z,32.7
2018-08-19T12:29:42.000Z,32.7
2018-08-19T12:30:42.000Z,32.7
2018-08-19T12:31:42.000Z,32.8
2018-08-19T12:32:42.000Z,32.8
2018-08-19T12:34:42.000Z,32.9
2018-08-19T12:35:42.000Z,32.9
2018-08-19T12:37:42.000Z,32.9
2018-08-19T12:39:42.000Z,32.8
2018-08-19T12:41:42.000Z,32.7
2018-08-19T12:42:42.000Z,32.7
2018-08-19T12:44:42.000Z,32.8
2018-08-19T12:45:42.000Z,32.8
2018-08-19T12:47:42.000Z,32.8
2018-08-19T12:49:42.000Z,32.7
2018-08-19T12:50:42.000Z,32.7
2018-08-19T12:51:42.000Z,32.8
2018-08-19T12:53:26.000Z,32.8
2018-08-19T12:54:42.000Z,32.8
2018-08-19T12:55:42.000Z,32.9
2018-08-19T12:56:42.000Z,32.9
2018-08-19T12:58:26.000Z,33
2018-08-19T12:59:42.000Z,33
2018-08-19T13:00:42.000Z,33
2018-08-19T13:02:42.000Z,33
2018-08-19T13:03:42.000Z,33
2018-08-19T13:05:42.000Z,33
2018-08-19T13:07:42.000Z,32.9
2018-08-19T13:08:42.000Z,32.8
2018-08-19T13:10:42.000Z,32.8
2018-08-19T13:11:42.000Z,32.9
2018-08-19T13:13:42.000Z,32.9
2018-08-19T13:15:26.000Z,32.9
2018-08-19T13:16:42.000Z,32.9
2018-08-19T13:17:42.000Z,32.9
2018-08-19T13:19:42.000Z,32.9
2018-08-19T13:21:42.000Z,32.8
2018-08-19T13:23:42.000Z,32.8
2018-08-19T13:25:41.000Z,32.9
2018-08-19T13:27:26.000Z,33.5
2018-08-19T13:28:41.000Z,34.3
2018-08-19T13:29:41.000Z,35.2
2018-08-19T13:30:41.000Z,36.2
2018-08-19T13:32:41.000Z,37.6
2018-08-19T13:33:41.000Z,38.1
2018-08-19T13:34:41.000Z,38.4
2018-08-19T13:36:41.000Z,38.2
2018-08-19T13:37:41.000Z,37.7
2018-08-19T13:38:41.000Z,37.1
2018-08-19T13:39:41.000Z,36.6
2018-08-19T13:41:41.000Z,35.8
2018-08-19T13:42:41.000Z,35.4
2018-08-19T13:44:41.000Z,34.9
2018-08-19T13:45:41.000Z,34.7
2018-08-19T13:46:41.000Z,34.5
2018-08-19T13:48:41.000Z,34.2
2018-08-19T13:50:41.000Z,34
2018-08-19T13:51:41.000Z,33.9
2018-08-19T13:53:41.000Z,33.8
2018-08-19T13:54:41.000Z,33.7
2018-08-19T13:55:41.000Z,33.7
2018-08-19T13:57:26.000Z,33.7
2018-08-19T13:58:41.000Z,33.6
2018-08-19T13:59:41.000Z,33.6
2018-08-19T14:01:41.000Z,33.5
2018-08-19T14:03:41.000Z,33.4
2018-08-19T14:05:41.000Z,33.3
2018-08-19T14:06:41.000Z,33.3
2018-08-19T14:07:41.000Z,33.3
2018-08-19T14:09:41.000Z,33.3
2018-08-19T14:11:26.000Z,33.3
2018-08-19T14:12:41.000Z,33.2
2018-08-19T14:13:41.000Z,33.2
2018-08-19T14:14:41.000Z,33.2
2018-08-19T14:15:41.000Z,33.3
2018-08-19T14:16:41.000Z,33.3
2018-08-19T14:18:41.000Z,33.3
2018-08-19T14:19:41.000Z,33.3
2018-08-19T14:21:41.000Z,33.2
2018-08-19T14:23:41.000Z,33.1
2018-08-19T14:25:41.000Z,33.1
2018-08-19T14:27:41.000Z,33
2018-08-19T14:28:41.000Z,33
2018-08-19T14:30:41.000Z,33
2018-08-19T14:32:26.000Z,33
2018-08-19T14:33:41.000Z,32.9
2018-08-19T14:35:41.000Z,32.9
2018-08-19T14:36:41.000Z,32.9
2018-08-19T14:37:41.000Z,32.9
2018-08-19T14:38:41.000Z,33
2018-08-19T14:39:41.000Z,33
2018-08-19T14:40:41.000Z,33.1
2018-08-19T14:41:41.000Z,33.1
2018-08-19T14:43:41.000Z,33.2
2018-08-19T14:44:41.000Z,33.2
2018-08-19T14:46:41.000Z,33.1
2018-08-19T14:47:41.000Z,33.1
2018-08-19T14:49:41.000Z,33.1
2018-08-19T14:51:41.000Z,33
2018-08-19T14:52:41.000Z,33
2018-08-19T14:53:41.000Z,33
2018-08-19T14:55:41.000Z,33
2018-08-19T14:56:41.000Z,33
2018-08-19T14:58:41.000Z,33
2018-08-19T14:59:41.000Z,33
2018-08-19T15:00:41.000Z,33
2018-08-19T15:02:41.000Z,33
2018-08-19T15:03:41.000Z,33
2018-08-19T15:04:41.000Z,33
2018-08-19T15:06:41.000Z,33.1
2018-08-19T15:07:41.000Z,33.1
2018-08-19T15:08:41.000Z,33.1
2018-08-19T15:10:41.000Z,33.2
2018-08-19T15:11:41.000Z,33.2
2018-08-19T15:13:41.000Z,33.2
2018-08-19T15:14:41.000Z,33.1
2018-08-19T15:15:41.000Z,33.2
2018-08-19T15:17:26.000Z,33.2
2018-08-19T15:18:41.000Z,33.1
2018-08-19T15:19:41.000Z,33.1
2018-08-19T15:20:41.000Z,33.2
2018-08-19T15:21:41.000Z,33.2
2018-08-19T15:22:41.000Z,33.3
2018-08-19T15:24:41.000Z,33.2
2018-08-19T15:26:26.000Z,33.2
2018-08-19T15:27:41.000Z,33.1
2018-08-19T15:28:41.000Z,33
2018-08-19T15:29:41.000Z,33
2018-08-19T15:30:41.000Z,33
2018-08-19T15:31:41.000Z,33.1
2018-08-19T15:32:41.000Z,33.1
2018-08-19T15:33:41.000Z,33.1
2018-08-19T15:35:26.000Z,33.2
2018-08-19T15:36:41.000Z,33.1
2018-08-19T15:38:41.000Z,33
2018-08-19T15:40:41.000Z,33
2018-08-19T15:42:41.000Z,32.9
2018-08-19T15:44:41.000Z,32.9
2018-08-19T15:46:26.000Z,32.8
2018-08-19T15:47:41.000Z,32.8
2018-08-19T15:49:41.000Z,32.8
2018-08-19T15:51:41.000Z,32.8
2018-08-19T15:53:41.000Z,32.8
2018-08-19T15:54:41.000Z,32.8
2018-08-19T15:56:41.000Z,32.8
2018-08-19T15:58:26.000Z,32.8
2018-08-19T15:59:41.000Z,32.7
2018-08-19T16:00:41.000Z,32.7
2018-08-19T16:02:26.000Z,32.8
2018-08-19T16:03:41.000Z,32.8
2018-08-19T16:04:41.000Z,32.8
2018-08-19T16:06:41.000Z,32.8
2018-08-19T16:07:41.000Z,32.8
2018-08-19T16:08:41.000Z,32.8
2018-08-19T16:09:41.000Z,32.8
2018-08-19T16:10:41.000Z,32.9
2018-08-19T16:12:41.000Z,32.9
2018-08-19T16:14:41.000Z,32.8
2018-08-19T16:16:41.000Z,32.7
2018-08-19T16:18:41.000Z,32.7
2018-08-19T16:20:26.000Z,32.7
2018-08-19T16:21:41.000Z,32.6
2018-08-19T16:22:41.000Z,32.7
2018-08-19T16:23:41.000Z,32.7
2018-08-19T16:24:41.000Z,32.8
2018-08-19T16:26:41.000Z,32.9
2018-08-19T16:27:41.000Z,32.9
2018-08-19T16:28:41.000Z,33
2018-08-19T16:30:41.000Z,33
2018-08-19T16:32:41.000Z,32.9
2018-08-19T16:33:41.000Z,32.9
2018-08-19T16:34:41.000Z,33
2018-08-19T16:36:41.000Z,33
2018-08-19T16:38:41.000Z,33
2018-08-19T16:39:41.000Z,32.9
2018-08-19T16:41:41.000Z,32.9
2018-08-19T16:42:41.000Z,32.8
2018-08-19T16:43:41.000Z,32.9
2018-08-19T16:45:41.000Z,32.8
2018-08-19T16:47:41.000Z,32.8
2018-08-19T16:48:41.000Z,32.8
2018-08-19T16:50:41.000Z,32.7
2018-08-19T16:52:41.000Z,32.7
2018-08-19T16:53:41.000Z,32.7
2018-08-19T16:55:41.000Z,32.7
2018-08-19T16:57:41.000Z,32.7
2018-08-19T16:59:41.000Z,32.7
2018-08-19T17:01:41.000Z,32.6
2018-08-19T17:02:41.000Z,32.6
2018-08-19T17:04:41.000Z,32.6
2018-08-19T17:06:41.000Z,32.6
2018-08-19T17:08:41.000Z,32.6
2018-08-19T17:10:41.000Z,32.6
2018-08-19T17:12:41.000Z,32.6
2018-08-19T17:14:41.000Z,32.6
2018-08-19T17:16:41.000Z,32.6
2018-08-19T17:17:41.000Z,32.6
2018-08-19T17:19:41.000Z,32.6
2018-08-19T17:21:41.000Z,32.7
2018-08-19T17:23:41.000Z,32.6
2018-08-19T17:25:41.000Z,32.6
2018-08-19T17:26:41.000Z,32.5
2018-08-19T17:27:41.000Z,32.6
2018-08-19T17:29:41.000Z,32.7
2018-08-19T17:30:41.000Z,32.7
2018-08-19T17:32:41.000Z,32.8
2018-08-19T17:34:41.000Z,32.8
2018-08-19T17:35:41.000Z,32.8
2018-08-19T17:37:41.000Z,32.9
2018-08-19T17:39:41.000Z,32.8
2018-08-19T17:40:41.000Z,32.8
2018-08-19T17:42:41.000Z,32.8
2018-08-19T17:43:41.000Z,32.8
2018-08-19T17:45:41.000Z,32.9
2018-08-19T17:46:41.000Z,32.9
2018-08-19T17:47:41.000Z,32.9
2018-08-19T17:49:41.000Z,33
2018-08-19T17:50:41.000Z,33
2018-08-19T17:52:41.000Z,33
2018-08-19T17:54:41.000Z,33
2018-08-19T17:55:41.000Z,32.9
2018-08-19T17:57:41.000Z,32.9
2018-08-19T17:58:41.000Z,32.9
2018-08-19T18:00:41.000Z,32.8
2018-08-19T18:02:41.000Z,32.8
2018-08-19T18:04:41.000Z,32.8
2018-08-19T18:05:41.000Z,32.8
2018-08-19T18:07:41.000Z,32.8
2018-08-19T18:08:41.000Z,32.8
2018-08-19T18:10:26.000Z,32.8
2018-08-19T18:11:41.000Z,32.8
2018-08-19T18:13:41.000Z,32.8
2018-08-19T18:15:41.000Z,32.8
2018-08-19T18:17:41.000Z,32.7
2018-08-19T18:19:41.000Z,32.7
2018-08-19T18:21:41.000Z,32.7
2018-08-19T18:23:41.000Z,32.6
2018-08-19T18:24:41.000Z,32.6
2018-08-19T18:25:41.000Z,32.6
2018-08-19T18:26:41.000Z,32.7
2018-08-19T18:27:41.000Z,32.7
2018-08-19T18:29:41.000Z,32.8
2018-08-19T18:31:41.000Z,32.7
2018-08-19T18:32:41.000Z,32.7
2018-08-19T18:34:26.000Z,32.7
2018-08-19T18:35:41.000Z,32.7
2018-08-19T18:36:41.000Z,32.7
2018-08-19T18:38:41.000Z,32.7
2018-08-19T18:39:41.000Z,32.7
2018-08-19T18:41:26.000Z,32.7
2018-08-19T18:42:41.000Z,32.6
2018-08-19T18:43:41.000Z,32.6
2018-08-19T18:44:41.000Z,32.7
2018-08-19T18:46:41.000Z,32.7
2018-08-19T18:47:41.000Z,32.7
2018-08-19T18:49:41.000Z,32.7
2018-08-19T18:51:26.000Z,32.6
2018-08-19T18:52:41.000Z,32.6
2018-08-19T18:54:41.000Z,32.5
2018-08-19T18:55:41.000Z,32.5
2018-08-19T18:56:41.000Z,32.5
2018-08-19T18:58:41.000Z,32.5
2018-08-19T19:00:41.000Z,32.5
2018-08-19T19:02:41.000Z,32.4
2018-08-19T19:03:41.000Z,32.5
2018-08-19T19:04:41.000Z,32.5
2018-08-19T19:06:41.000Z,32.6
2018-08-19T19:07:41.000Z,32.6
2018-08-19T19:08:41.000Z,32.6
2018-08-19T19:10:26.000Z,32.7
2018-08-19T19:11:41.000Z,32.7
2018-08-19T19:12:41.000Z,32.7
2018-08-19T19:14:41.000Z,32.6
2018-08-19T19:15:41.000Z,32.6
2018-08-19T19:17:41.000Z,32.6
2018-08-19T19:19:41.000Z,32.5
2018-08-19T19:20:41.000Z,32.5
2018-08-19T19:21:41.000Z,32.6
2018-08-19T19:23:26.000Z,32.2
2018-08-19T19:24:41.000Z,32.6
2018-08-19T19:26:41.000Z,32.6
2018-08-19T19:28:41.000Z,32.5
2018-08-19T19:30:41.000Z,32.5
2018-08-19T19:31:41.000Z,32.5
2018-08-19T19:32:41.000Z,32.5
2018-08-19T19:34:41.000Z,32.6
2018-08-19T19:36:26.000Z,32.6
2018-08-19T19:37:41.000Z,32.5
2018-08-19T19:39:26.000Z,32.5
2018-08-19T19:40:41.000Z,32.4
2018-08-19T19:41:41.000Z,32.5
2018-08-19T19:43:41.000Z,32.5
2018-08-19T19:45:41.000Z,32.4
2018-08-19T19:47:41.000Z,32.3
2018-08-19T19:48:41.000Z,32.3
2018-08-19T19:49:41.000Z,32.4
2018-08-19T19:51:41.000Z,32.5
2018-08-19T19:52:41.000Z,32.5
2018-08-19T19:54:41.000Z,32.5
2018-08-19T19:56:41.000Z,32.4
2018-08-19T19:58:26.000Z,32.4
2018-08-19T19:59:41.000Z,32.3
2018-08-19T20:00:41.000Z,32.3
2018-08-19T20:01:41.000Z,32.4
2018-08-19T20:02:41.000Z,32.4
2018-08-19T20:04:41.000Z,32.4
2018-08-19T20:05:41.000Z,32.4
2018-08-19T20:07:41.000Z,32.4
2018-08-19T20:08:41.000Z,32.4
2018-08-19T20:09:41.000Z,32.4
2018-08-19T20:11:41.000Z,32.5
2018-08-19T20:13:41.000Z,32.4
2018-08-19T20:14:41.000Z,32.4
2018-08-19T20:15:41.000Z,32.5
2018-08-19T20:17:41.000Z,32.5